sensor_id;sensor_type;location;lat;lon;timestamp;P1;durP1;ratioP1;P2;durP2;ratioP2
44987;SDS011;35735;52.226;21.254;2023-03-23T00:02:06;30.50;;;20.05;;
44987;SDS011;35735;52.226;21.254;2023-03-23T00:07:06;33.38;;;20.42;;
44987;SDS011;35735;52.226;21.254;2023-03-23T00:12:07;28.70;;;20.12;;
44987;SDS011;35735;52.226;21.254;2023-03-23T00:17:08;27.90;;;19.73;;
44987;SDS011;35735;52.226;21.254;2023-03-23T00:22:10;27.55;;;19.98;;
44987;SDS011;35735;52.226;21.254;2023-03-23T00:27:10;29.87;;;20.05;;
44987;SDS011;35735;52.226;21.254;2023-03-23T00:32:12;29.20;;;19.98;;
44987;SDS011;35735;52.226;21.254;2023-03-23T00:37:13;29.58;;;20.70;;
44987;SDS011;35735;52.226;21.254;2023-03-23T00:42:15;29.52;;;20.35;;
44987;SDS011;35735;52.226;21.254;2023-03-23T00:47:16;28.17;;;19.73;;
44987;SDS011;35735;52.226;21.254;2023-03-23T00:52:16;28.58;;;20.52;;
44987;SDS011;35735;52.226;21.254;2023-03-23T00:57:17;29.40;;;19.92;;
44987;SDS011;35735;52.226;21.254;2023-03-23T01:02:17;30.73;;;21.05;;
44987;SDS011;35735;52.226;21.254;2023-03-23T01:07:19;31.02;;;21.02;;
44987;SDS011;35735;52.226;21.254;2023-03-23T01:12:21;29.55;;;20.42;;
44987;SDS011;35735;52.226;21.254;2023-03-23T01:17:21;31.02;;;21.42;;
44987;SDS011;35735;52.226;21.254;2023-03-23T01:22:22;30.80;;;21.05;;
44987;SDS011;35735;52.226;21.254;2023-03-23T01:27:23;35.45;;;21.50;;
44987;SDS011;35735;52.226;21.254;2023-03-23T01:32:23;28.80;;;20.35;;
44987;SDS011;35735;52.226;21.254;2023-03-23T01:37:24;28.80;;;21.02;;
44987;SDS011;35735;52.226;21.254;2023-03-23T01:42:25;33.83;;;20.33;;
44987;SDS011;35735;52.226;21.254;2023-03-23T01:47:30;30.88;;;21.90;;
44987;SDS011;35735;52.226;21.254;2023-03-23T01:52:31;28.20;;;21.25;;
44987;SDS011;35735;52.226;21.254;2023-03-23T01:57:32;30.83;;;20.83;;
44987;SDS011;35735;52.226;21.254;2023-03-23T02:02:34;30.50;;;21.20;;
44987;SDS011;35735;52.226;21.254;2023-03-23T02:07:35;33.22;;;20.48;;
44987;SDS011;35735;52.226;21.254;2023-03-23T02:12:37;30.40;;;21.83;;
44987;SDS011;35735;52.226;21.254;2023-03-23T02:17:44;33.88;;;21.12;;
44987;SDS011;35735;52.226;21.254;2023-03-23T02:23:19;31.85;;;20.83;;
44987;SDS011;35735;52.226;21.254;2023-03-23T02:34:05;32.97;;;21.30;;
44987;SDS011;35735;52.226;21.254;2023-03-23T02:39:10;30.80;;;21.40;;
44987;SDS011;35735;52.226;21.254;2023-03-23T02:44:18;29.42;;;20.62;;
44987;SDS011;35735;52.226;21.254;2023-03-23T02:49:19;29.30;;;20.20;;
44987;SDS011;35735;52.226;21.254;2023-03-23T02:54:21;29.58;;;20.12;;
44987;SDS011;35735;52.226;21.254;2023-03-23T02:59:24;29.77;;;20.73;;
44987;SDS011;35735;52.226;21.254;2023-03-23T03:04:25;29.77;;;20.10;;
44987;SDS011;35735;52.226;21.254;2023-03-23T03:15:31;33.10;;;22.10;;
44987;SDS011;35735;52.226;21.254;2023-03-23T03:20:25;28.65;;;19.92;;
44987;SDS011;35735;52.226;21.254;2023-03-23T03:25:27;28.60;;;19.92;;
44987;SDS011;35735;52.226;21.254;2023-03-23T03:30:30;31.40;;;21.37;;
44987;SDS011;35735;52.226;21.254;2023-03-23T03:35:35;27.90;;;20.67;;
44987;SDS011;35735;52.226;21.254;2023-03-23T03:40:38;30.25;;;20.48;;
44987;SDS011;35735;52.226;21.254;2023-03-23T03:45:39;28.65;;;19.98;;
44987;SDS011;35735;52.226;21.254;2023-03-23T03:50:39;28.27;;;19.37;;
44987;SDS011;35735;52.226;21.254;2023-03-23T03:55:40;32.13;;;20.62;;
44987;SDS011;35735;52.226;21.254;2023-03-23T04:00:41;29.42;;;21.00;;
44987;SDS011;35735;52.226;21.254;2023-03-23T04:05:42;32.15;;;20.40;;
44987;SDS011;35735;52.226;21.254;2023-03-23T04:10:43;28.00;;;19.25;;
44987;SDS011;35735;52.226;21.254;2023-03-23T04:15:44;30.85;;;20.30;;
44987;SDS011;35735;52.226;21.254;2023-03-23T04:20:46;27.90;;;20.70;;
44987;SDS011;35735;52.226;21.254;2023-03-23T04:25:48;34.75;;;21.75;;
44987;SDS011;35735;52.226;21.254;2023-03-23T04:30:50;28.90;;;20.58;;
44987;SDS011;35735;52.226;21.254;2023-03-23T04:35:52;30.42;;;22.27;;
44987;SDS011;35735;52.226;21.254;2023-03-23T04:40:54;31.62;;;21.45;;
44987;SDS011;35735;52.226;21.254;2023-03-23T04:45:56;31.73;;;21.67;;
44987;SDS011;35735;52.226;21.254;2023-03-23T04:51:00;31.40;;;21.30;;
44987;SDS011;35735;52.226;21.254;2023-03-23T04:56:02;27.85;;;20.23;;
44987;SDS011;35735;52.226;21.254;2023-03-23T05:01:03;30.30;;;21.12;;
44987;SDS011;35735;52.226;21.254;2023-03-23T05:06:03;28.42;;;20.17;;
44987;SDS011;35735;52.226;21.254;2023-03-23T05:11:04;29.87;;;20.83;;
44987;SDS011;35735;52.226;21.254;2023-03-23T05:16:06;30.85;;;19.45;;
44987;SDS011;35735;52.226;21.254;2023-03-23T05:21:07;35.20;;;21.00;;
44987;SDS011;35735;52.226;21.254;2023-03-23T05:26:07;30.92;;;20.30;;
44987;SDS011;35735;52.226;21.254;2023-03-23T05:31:08;32.00;;;20.55;;
44987;SDS011;35735;52.226;21.254;2023-03-23T05:36:08;28.38;;;20.58;;
44987;SDS011;35735;52.226;21.254;2023-03-23T05:41:09;29.12;;;20.35;;
44987;SDS011;35735;52.226;21.254;2023-03-23T05:46:10;33.88;;;19.92;;
44987;SDS011;35735;52.226;21.254;2023-03-23T05:51:10;30.73;;;19.73;;
44987;SDS011;35735;52.226;21.254;2023-03-23T05:56:11;34.13;;;19.85;;
44987;SDS011;35735;52.226;21.254;2023-03-23T06:01:11;26.62;;;18.85;;
44987;SDS011;35735;52.226;21.254;2023-03-23T06:06:12;26.37;;;18.77;;
44987;SDS011;35735;52.226;21.254;2023-03-23T06:11:12;29.10;;;18.08;;
44987;SDS011;35735;52.226;21.254;2023-03-23T06:16:13;29.10;;;18.90;;
44987;SDS011;35735;52.226;21.254;2023-03-23T06:21:13;32.03;;;18.30;;
44987;SDS011;35735;52.226;21.254;2023-03-23T06:26:14;39.20;;;17.42;;
44987;SDS011;35735;52.226;21.254;2023-03-23T06:31:18;27.50;;;18.15;;
44987;SDS011;35735;52.226;21.254;2023-03-23T06:36:19;26.00;;;17.37;;
44987;SDS011;35735;52.226;21.254;2023-03-23T06:41:19;25.37;;;16.27;;
44987;SDS011;35735;52.226;21.254;2023-03-23T06:46:20;22.87;;;15.88;;
44987;SDS011;35735;52.226;21.254;2023-03-23T06:51:20;27.67;;;16.40;;
44987;SDS011;35735;52.226;21.254;2023-03-23T06:56:21;25.65;;;16.48;;
44987;SDS011;35735;52.226;21.254;2023-03-23T07:01:21;21.92;;;15.45;;
44987;SDS011;35735;52.226;21.254;2023-03-23T07:06:23;21.62;;;15.52;;
44987;SDS011;35735;52.226;21.254;2023-03-23T07:11:24;24.95;;;15.20;;
44987;SDS011;35735;52.226;21.254;2023-03-23T07:16:24;21.37;;;13.95;;
44987;SDS011;35735;52.226;21.254;2023-03-23T07:21:25;24.35;;;14.82;;
44987;SDS011;35735;52.226;21.254;2023-03-23T07:26:26;24.27;;;13.32;;
44987;SDS011;35735;52.226;21.254;2023-03-23T07:31:26;21.15;;;12.15;;
44987;SDS011;35735;52.226;21.254;2023-03-23T07:36:27;18.87;;;11.25;;
44987;SDS011;35735;52.226;21.254;2023-03-23T07:41:27;15.43;;;11.23;;
44987;SDS011;35735;52.226;21.254;2023-03-23T07:46:28;17.87;;;11.68;;
44987;SDS011;35735;52.226;21.254;2023-03-23T07:51:29;18.70;;;11.82;;
44987;SDS011;35735;52.226;21.254;2023-03-23T07:56:29;18.33;;;11.40;;
44987;SDS011;35735;52.226;21.254;2023-03-23T08:01:31;18.02;;;11.35;;
44987;SDS011;35735;52.226;21.254;2023-03-23T08:06:32;13.00;;;9.43;;
44987;SDS011;35735;52.226;21.254;2023-03-23T08:11:34;15.02;;;8.75;;
44987;SDS011;35735;52.226;21.254;2023-03-23T08:16:35;13.80;;;8.93;;
44987;SDS011;35735;52.226;21.254;2023-03-23T08:21:36;12.77;;;8.20;;
44987;SDS011;35735;52.226;21.254;2023-03-23T08:26:36;16.35;;;8.50;;
44987;SDS011;35735;52.226;21.254;2023-03-23T08:31:38;9.43;;;6.93;;
44987;SDS011;35735;52.226;21.254;2023-03-23T08:36:39;12.75;;;7.20;;
44987;SDS011;35735;52.226;21.254;2023-03-23T08:41:40;9.68;;;6.45;;
44987;SDS011;35735;52.226;21.254;2023-03-23T08:46:41;13.07;;;6.60;;
44987;SDS011;35735;52.226;21.254;2023-03-23T08:51:42;8.55;;;6.47;;
44987;SDS011;35735;52.226;21.254;2023-03-23T08:56:42;10.82;;;6.00;;
44987;SDS011;35735;52.226;21.254;2023-03-23T09:01:43;12.52;;;6.78;;
44987;SDS011;35735;52.226;21.254;2023-03-23T09:06:44;10.00;;;5.15;;
44987;SDS011;35735;52.226;21.254;2023-03-23T09:11:44;8.52;;;5.37;;
44987;SDS011;35735;52.226;21.254;2023-03-23T09:16:45;9.55;;;5.43;;
44987;SDS011;35735;52.226;21.254;2023-03-23T09:21:45;8.80;;;5.20;;
44987;SDS011;35735;52.226;21.254;2023-03-23T09:26:46;9.35;;;5.53;;
44987;SDS011;35735;52.226;21.254;2023-03-23T09:31:47;7.50;;;5.35;;
44987;SDS011;35735;52.226;21.254;2023-03-23T09:36:47;7.37;;;5.47;;
44987;SDS011;35735;52.226;21.254;2023-03-23T09:47:45;6.55;;;4.93;;
44987;SDS011;35735;52.226;21.254;2023-03-23T09:53:13;6.82;;;4.43;;
44987;SDS011;35735;52.226;21.254;2023-03-23T09:58:27;7.10;;;4.85;;
44987;SDS011;35735;52.226;21.254;2023-03-23T10:03:42;9.88;;;5.22;;
44987;SDS011;35735;52.226;21.254;2023-03-23T10:08:50;10.27;;;5.12;;
44987;SDS011;35735;52.226;21.254;2023-03-23T10:13:58;9.23;;;5.53;;
44987;SDS011;35735;52.226;21.254;2023-03-23T10:19:40;9.90;;;5.32;;
44987;SDS011;35735;52.226;21.254;2023-03-23T10:25:02;7.72;;;5.18;;
44987;SDS011;35735;52.226;21.254;2023-03-23T10:36:13;9.38;;;5.22;;
44987;SDS011;35735;52.226;21.254;2023-03-23T10:41:05;8.68;;;5.07;;
44987;SDS011;35735;52.226;21.254;2023-03-23T10:51:44;6.72;;;4.87;;
44987;SDS011;35735;52.226;21.254;2023-03-23T10:57:23;11.25;;;4.90;;
44987;SDS011;35735;52.226;21.254;2023-03-23T11:02:29;7.15;;;4.68;;
44987;SDS011;35735;52.226;21.254;2023-03-23T11:07:31;6.47;;;4.55;;
44987;SDS011;35735;52.226;21.254;2023-03-23T11:12:34;8.13;;;5.40;;
44987;SDS011;35735;52.226;21.254;2023-03-23T11:17:34;10.45;;;4.97;;
44987;SDS011;35735;52.226;21.254;2023-03-23T11:22:35;9.55;;;4.10;;
44987;SDS011;35735;52.226;21.254;2023-03-23T11:27:37;5.87;;;2.90;;
44987;SDS011;35735;52.226;21.254;2023-03-23T11:32:42;5.55;;;3.58;;
44987;SDS011;35735;52.226;21.254;2023-03-23T11:37:46;5.43;;;3.05;;
44987;SDS011;35735;52.226;21.254;2023-03-23T11:48:17;6.72;;;3.70;;
44987;SDS011;35735;52.226;21.254;2023-03-23T11:58:54;6.45;;;3.30;;
44987;SDS011;35735;52.226;21.254;2023-03-23T12:04:08;4.82;;;3.00;;
44987;SDS011;35735;52.226;21.254;2023-03-23T12:15:05;5.62;;;3.20;;
44987;SDS011;35735;52.226;21.254;2023-03-23T12:20:50;6.53;;;2.70;;
44987;SDS011;35735;52.226;21.254;2023-03-23T12:42:18;10.93;;;2.97;;
44987;SDS011;35735;52.226;21.254;2023-03-23T12:47:50;7.47;;;2.75;;
44987;SDS011;35735;52.226;21.254;2023-03-23T12:52:59;6.20;;;3.00;;
44987;SDS011;35735;52.226;21.254;2023-03-23T12:58:15;4.45;;;2.78;;
44987;SDS011;35735;52.226;21.254;2023-03-23T13:08:47;14.05;;;4.03;;
44987;SDS011;35735;52.226;21.254;2023-03-23T13:13:55;7.55;;;4.07;;
44987;SDS011;35735;52.226;21.254;2023-03-23T13:19:13;12.88;;;4.18;;
44987;SDS011;35735;52.226;21.254;2023-03-23T13:24:26;5.97;;;3.42;;
44987;SDS011;35735;52.226;21.254;2023-03-23T13:29:30;6.93;;;3.95;;
44987;SDS011;35735;52.226;21.254;2023-03-23T13:34:31;7.75;;;3.92;;
44987;SDS011;35735;52.226;21.254;2023-03-23T13:39:34;7.62;;;3.70;;
44987;SDS011;35735;52.226;21.254;2023-03-23T13:49:57;6.28;;;3.78;;
44987;SDS011;35735;52.226;21.254;2023-03-23T14:00:31;5.28;;;3.30;;
44987;SDS011;35735;52.226;21.254;2023-03-23T14:05:42;6.30;;;3.75;;
44987;SDS011;35735;52.226;21.254;2023-03-23T14:16:01;5.07;;;2.78;;
44987;SDS011;35735;52.226;21.254;2023-03-23T14:21:05;4.45;;;2.67;;
44987;SDS011;35735;52.226;21.254;2023-03-23T14:26:18;4.37;;;2.97;;
44987;SDS011;35735;52.226;21.254;2023-03-23T14:31:21;6.57;;;3.10;;
44987;SDS011;35735;52.226;21.254;2023-03-23T14:36:28;6.70;;;2.62;;
44987;SDS011;35735;52.226;21.254;2023-03-23T14:41:31;6.47;;;2.78;;
44987;SDS011;35735;52.226;21.254;2023-03-23T14:46:32;7.93;;;3.40;;
44987;SDS011;35735;52.226;21.254;2023-03-23T14:51:33;9.40;;;3.10;;
44987;SDS011;35735;52.226;21.254;2023-03-23T14:56:35;9.18;;;3.45;;
44987;SDS011;35735;52.226;21.254;2023-03-23T15:01:37;4.35;;;3.20;;
44987;SDS011;35735;52.226;21.254;2023-03-23T15:06:40;4.75;;;3.37;;
44987;SDS011;35735;52.226;21.254;2023-03-23T15:11:43;11.07;;;4.32;;
44987;SDS011;35735;52.226;21.254;2023-03-23T15:16:54;6.82;;;3.72;;
44987;SDS011;35735;52.226;21.254;2023-03-23T15:22:04;7.62;;;3.40;;
44987;SDS011;35735;52.226;21.254;2023-03-23T15:28:07;6.75;;;3.92;;
44987;SDS011;35735;52.226;21.254;2023-03-23T15:33:04;8.13;;;3.85;;
44987;SDS011;35735;52.226;21.254;2023-03-23T15:38:21;10.15;;;4.15;;
44987;SDS011;35735;52.226;21.254;2023-03-23T15:43:25;4.32;;;3.42;;
44987;SDS011;35735;52.226;21.254;2023-03-23T15:48:47;6.95;;;4.37;;
44987;SDS011;35735;52.226;21.254;2023-03-23T15:53:56;12.82;;;4.30;;
44987;SDS011;35735;52.226;21.254;2023-03-23T15:58:57;7.10;;;3.97;;
44987;SDS011;35735;52.226;21.254;2023-03-23T16:09:12;6.57;;;3.65;;
44987;SDS011;35735;52.226;21.254;2023-03-23T16:14:15;7.87;;;4.07;;
44987;SDS011;35735;52.226;21.254;2023-03-23T16:19:15;6.95;;;4.03;;
44987;SDS011;35735;52.226;21.254;2023-03-23T16:24:16;9.07;;;5.00;;
44987;SDS011;35735;52.226;21.254;2023-03-23T16:29:17;9.75;;;4.30;;
44987;SDS011;35735;52.226;21.254;2023-03-23T16:34:17;5.93;;;3.85;;
44987;SDS011;35735;52.226;21.254;2023-03-23T16:39:18;9.40;;;4.32;;
44987;SDS011;35735;52.226;21.254;2023-03-23T16:44:18;6.55;;;3.78;;
44987;SDS011;35735;52.226;21.254;2023-03-23T16:49:19;9.48;;;4.22;;
44987;SDS011;35735;52.226;21.254;2023-03-23T16:54:20;8.07;;;4.15;;
44987;SDS011;35735;52.226;21.254;2023-03-23T16:59:20;6.03;;;4.22;;
44987;SDS011;35735;52.226;21.254;2023-03-23T17:04:21;4.80;;;3.90;;
44987;SDS011;35735;52.226;21.254;2023-03-23T17:09:21;5.80;;;3.67;;
44987;SDS011;35735;52.226;21.254;2023-03-23T17:14:22;5.03;;;3.75;;
44987;SDS011;35735;52.226;21.254;2023-03-23T17:19:23;6.22;;;3.50;;
44987;SDS011;35735;52.226;21.254;2023-03-23T17:24:23;5.95;;;3.35;;
44987;SDS011;35735;52.226;21.254;2023-03-23T17:29:24;5.95;;;3.90;;
44987;SDS011;35735;52.226;21.254;2023-03-23T17:34:25;7.95;;;4.20;;
44987;SDS011;35735;52.226;21.254;2023-03-23T17:39:25;10.52;;;3.90;;
44987;SDS011;35735;52.226;21.254;2023-03-23T17:44:26;6.35;;;3.92;;
44987;SDS011;35735;52.226;21.254;2023-03-23T17:49:27;7.97;;;4.00;;
44987;SDS011;35735;52.226;21.254;2023-03-23T17:54:28;6.80;;;4.00;;
44987;SDS011;35735;52.226;21.254;2023-03-23T17:59:29;7.78;;;4.15;;
44987;SDS011;35735;52.226;21.254;2023-03-23T18:04:29;8.30;;;3.85;;
44987;SDS011;35735;52.226;21.254;2023-03-23T18:09:30;7.15;;;4.60;;
44987;SDS011;35735;52.226;21.254;2023-03-23T18:14:31;6.20;;;4.90;;
44987;SDS011;35735;52.226;21.254;2023-03-23T18:19:31;8.65;;;4.93;;
44987;SDS011;35735;52.226;21.254;2023-03-23T18:24:32;10.73;;;4.87;;
44987;SDS011;35735;52.226;21.254;2023-03-23T18:29:32;9.23;;;4.87;;
44987;SDS011;35735;52.226;21.254;2023-03-23T18:34:33;7.30;;;5.10;;
44987;SDS011;35735;52.226;21.254;2023-03-23T18:39:34;9.43;;;5.80;;
44987;SDS011;35735;52.226;21.254;2023-03-23T18:44:35;7.62;;;5.43;;
44987;SDS011;35735;52.226;21.254;2023-03-23T18:49:35;7.55;;;5.43;;
44987;SDS011;35735;52.226;21.254;2023-03-23T18:54:36;10.65;;;6.47;;
44987;SDS011;35735;52.226;21.254;2023-03-23T18:59:37;12.30;;;5.80;;
44987;SDS011;35735;52.226;21.254;2023-03-23T19:04:37;9.48;;;6.00;;
44987;SDS011;35735;52.226;21.254;2023-03-23T19:09:38;8.30;;;5.53;;
44987;SDS011;35735;52.226;21.254;2023-03-23T19:14:39;10.23;;;5.75;;
44987;SDS011;35735;52.226;21.254;2023-03-23T19:19:40;9.15;;;5.60;;
44987;SDS011;35735;52.226;21.254;2023-03-23T19:24:40;9.90;;;5.87;;
44987;SDS011;35735;52.226;21.254;2023-03-23T19:29:41;8.85;;;5.55;;
44987;SDS011;35735;52.226;21.254;2023-03-23T19:34:41;7.18;;;4.75;;
44987;SDS011;35735;52.226;21.254;2023-03-23T19:39:42;8.55;;;5.32;;
44987;SDS011;35735;52.226;21.254;2023-03-23T19:44:42;9.23;;;5.12;;
44987;SDS011;35735;52.226;21.254;2023-03-23T19:49:43;7.55;;;4.57;;
44987;SDS011;35735;52.226;21.254;2023-03-23T19:54:44;6.80;;;4.90;;
44987;SDS011;35735;52.226;21.254;2023-03-23T19:59:44;6.93;;;3.95;;
44987;SDS011;35735;52.226;21.254;2023-03-23T20:04:45;6.90;;;3.75;;
44987;SDS011;35735;52.226;21.254;2023-03-23T20:09:46;5.78;;;2.92;;
44987;SDS011;35735;52.226;21.254;2023-03-23T20:14:46;4.95;;;2.65;;
44987;SDS011;35735;52.226;21.254;2023-03-23T20:19:47;4.97;;;2.30;;
44987;SDS011;35735;52.226;21.254;2023-03-23T20:24:47;2.97;;;2.00;;
44987;SDS011;35735;52.226;21.254;2023-03-23T20:29:48;4.87;;;2.78;;
44987;SDS011;35735;52.226;21.254;2023-03-23T20:34:48;3.92;;;2.17;;
44987;SDS011;35735;52.226;21.254;2023-03-23T20:39:49;2.37;;;2.05;;
44987;SDS011;35735;52.226;21.254;2023-03-23T20:44:50;4.68;;;2.20;;
44987;SDS011;35735;52.226;21.254;2023-03-23T20:49:50;2.50;;;1.80;;
44987;SDS011;35735;52.226;21.254;2023-03-23T20:54:51;3.87;;;2.17;;
44987;SDS011;35735;52.226;21.254;2023-03-23T20:59:53;3.15;;;2.20;;
44987;SDS011;35735;52.226;21.254;2023-03-23T21:04:54;2.00;;;1.77;;
44987;SDS011;35735;52.226;21.254;2023-03-23T21:09:55;4.55;;;2.40;;
44987;SDS011;35735;52.226;21.254;2023-03-23T21:14:55;4.72;;;2.10;;
44987;SDS011;35735;52.226;21.254;2023-03-23T21:19:56;4.20;;;2.33;;
44987;SDS011;35735;52.226;21.254;2023-03-23T21:24:57;4.12;;;2.42;;
44987;SDS011;35735;52.226;21.254;2023-03-23T21:29:58;3.75;;;2.40;;
44987;SDS011;35735;52.226;21.254;2023-03-23T21:34:58;4.28;;;2.47;;
44987;SDS011;35735;52.226;21.254;2023-03-23T21:39:59;2.78;;;2.20;;
44987;SDS011;35735;52.226;21.254;2023-03-23T21:45:00;3.75;;;2.70;;
44987;SDS011;35735;52.226;21.254;2023-03-23T21:50:00;3.62;;;2.60;;
44987;SDS011;35735;52.226;21.254;2023-03-23T21:55:02;3.17;;;2.45;;
44987;SDS011;35735;52.226;21.254;2023-03-23T22:00:07;3.97;;;2.90;;
44987;SDS011;35735;52.226;21.254;2023-03-23T22:05:10;4.80;;;2.90;;
44987;SDS011;35735;52.226;21.254;2023-03-23T22:10:11;4.82;;;3.00;;
44987;SDS011;35735;52.226;21.254;2023-03-23T22:15:12;4.97;;;3.28;;
44987;SDS011;35735;52.226;21.254;2023-03-23T22:20:13;4.40;;;3.22;;
44987;SDS011;35735;52.226;21.254;2023-03-23T22:25:13;6.53;;;4.10;;
44987;SDS011;35735;52.226;21.254;2023-03-23T22:30:14;5.25;;;3.60;;
44987;SDS011;35735;52.226;21.254;2023-03-23T22:35:15;5.45;;;4.00;;
44987;SDS011;35735;52.226;21.254;2023-03-23T22:40:16;6.93;;;3.92;;
44987;SDS011;35735;52.226;21.254;2023-03-23T22:45:17;6.87;;;4.37;;
44987;SDS011;35735;52.226;21.254;2023-03-23T22:50:18;5.50;;;4.03;;
44987;SDS011;35735;52.226;21.254;2023-03-23T22:55:19;5.25;;;4.03;;
44987;SDS011;35735;52.226;21.254;2023-03-23T23:00:20;9.68;;;4.60;;
44987;SDS011;35735;52.226;21.254;2023-03-23T23:05:20;7.72;;;4.65;;
44987;SDS011;35735;52.226;21.254;2023-03-23T23:10:21;8.15;;;5.37;;
44987;SDS011;35735;52.226;21.254;2023-03-23T23:15:22;9.40;;;5.82;;
44987;SDS011;35735;52.226;21.254;2023-03-23T23:20:22;12.18;;;7.05;;
44987;SDS011;35735;52.226;21.254;2023-03-23T23:25:23;13.00;;;7.20;;
44987;SDS011;35735;52.226;21.254;2023-03-23T23:30:24;11.07;;;7.85;;
44987;SDS011;35735;52.226;21.254;2023-03-23T23:35:25;9.40;;;7.10;;
44987;SDS011;35735;52.226;21.254;2023-03-23T23:40:25;10.02;;;7.35;;
44987;SDS011;35735;52.226;21.254;2023-03-23T23:45:26;13.45;;;6.95;;
44987;SDS011;35735;52.226;21.254;2023-03-23T23:50:27;9.35;;;5.97;;
44987;SDS011;35735;52.226;21.254;2023-03-23T23:55:28;7.10;;;5.40;;
